Time;durP1;ratioP1;P1;durP2;ratioP2;P2;SDS_P1;SDS_P2;PMS_P1;PMS_P2;Temp;Humidity;BMP_temperature;BMP_pressure;BME280_temperature;BME280_humidity;BME280_pressure;Samples;Min_cycle;Max_cycle;Signal;HPM_P1;HPM_P2
2023/05/11 00:01:52;;;;;;;1999.90;999.90;;;9.20;99.90;;;;;;5046978;28;20055;-79
2023/05/11 00:04:17;;;;;;;1999.90;999.90;;;9.20;99.90;;;;;;5065935;28;20060;-80
2023/05/11 00:06:43;;;;;;;1999.90;999.90;;;9.30;99.90;;;;;;5050338;28;20645;-79
2023/05/11 00:09:10;;;;;;;1999.90;999.90;;;9.30;99.90;;;;;;5047753;28;20021;-82
2023/05/11 00:11:36;;;;;;;1999.90;999.90;;;9.20;99.90;;;;;;5068060;28;20141;-79
2023/05/11 00:14:02;;;;;;;1999.90;999.90;;;9.20;99.90;;;;;;5046271;28;20491;-79
2023/05/11 00:16:27;;;;;;;1999.90;999.90;;;9.30;99.90;;;;;;5048019;28;20029;-79
2023/05/11 00:18:53;;;;;;;1999.90;999.90;;;9.30;99.90;;;;;;5065992;28;20044;-79
2023/05/11 00:21:19;;;;;;;1999.90;999.90;;;9.30;99.90;;;;;;5034419;28;20027;-78
2023/05/11 00:23:45;;;;;;;1999.90;999.90;;;9.30;99.90;;;;;;5036198;28;20037;-80
2023/05/11 00:26:10;;;;;;;1999.90;999.90;;;9.30;99.90;;;;;;5065008;28;20116;-78
2023/05/11 00:28:36;;;;;;;1999.90;999.90;;;9.30;99.90;;;;;;5067221;28;20037;-80
2023/05/11 00:31:02;;;;;;;1999.90;999.90;;;9.20;99.90;;;;;;5046046;28;20794;-82
2023/05/11 00:33:27;;;;;;;1999.90;999.90;;;9.20;99.90;;;;;;5067693;28;20115;-79
2023/05/11 00:35:53;;;;;;;1999.90;999.90;;;9.20;99.90;;;;;;5020921;28;20495;-81
2023/05/11 00:38:19;;;;;;;1999.90;999.90;;;9.20;99.90;;;;;;5068347;28;20059;-78
2023/05/11 00:40:45;;;;;;;1999.90;999.90;;;9.10;99.90;;;;;;5049561;28;20032;-81
2023/05/11 00:43:10;;;;;;;1999.90;999.90;;;9.10;99.90;;;;;;5045532;28;20076;-81
2023/05/11 00:45:36;;;;;;;1999.90;999.90;;;9.10;99.90;;;;;;5051980;28;20036;-80
2023/05/11 00:48:03;;;;;;;1999.90;999.90;;;9.20;99.90;;;;;;5045099;28;20045;-79
2023/05/11 00:50:29;;;;;;;1999.90;999.90;;;9.20;99.90;;;;;;5045695;28;20026;-80
2023/05/11 00:52:56;;;;;;;1999.90;999.90;;;9.10;99.90;;;;;;5047188;28;20037;-81
2023/05/11 00:55:22;;;;;;;1999.90;999.90;;;9.10;99.90;;;;;;5041884;28;20025;-80
2023/05/11 00:57:48;;;;;;;1999.90;999.90;;;9.10;99.90;;;;;;5015925;28;20505;-80
2023/05/11 01:00:32;;;;;;;1999.90;999.90;;;9.10;99.90;;;;;;5045077;28;20036;-80
2023/05/11 01:03:00;;;;;;;1999.90;999.90;;;9.20;99.90;;;;;;5045207;28;20033;-80
2023/05/11 01:05:35;;;;;;;1999.90;999.90;;;9.20;99.90;;;;;;5046439;28;20022;-79
2023/05/11 01:08:35;;;;;;;1999.90;999.90;;;9.20;99.90;;;;;;5045343;28;20021;-80
2023/05/11 01:11:11;;;;;;;1999.90;999.90;;;9.20;99.90;;;;;;5040804;28;20033;-80
2023/05/11 01:13:41;;;;;;;1999.90;999.90;;;9.20;99.90;;;;;;5045809;28;20372;-79
2023/05/11 01:16:29;;;;;;;1999.90;999.90;;;9.20;99.90;;;;;;5030316;28;20025;-81
2023/05/11 01:19:06;;;;;;;1999.90;999.90;;;9.10;99.90;;;;;;5045137;28;20040;-80
2023/05/11 01:21:33;;;;;;;1999.90;999.90;;;9.10;99.90;;;;;;5045975;28;20033;-79
2023/05/11 01:24:36;;;;;;;1999.90;999.90;;;9.10;99.90;;;;;;5046109;28;20108;-79
2023/05/11 01:27:38;;;;;;;1999.90;999.90;;;9.10;99.90;;;;;;5047244;28;20057;-81
2023/05/11 01:30:19;;;;;;;1999.90;999.90;;;9.10;99.90;;;;;;5046183;28;20151;-80
2023/05/11 01:32:45;;;;;;;1999.90;999.90;;;9.10;99.90;;;;;;5047961;28;20029;-80
2023/05/11 01:35:23;;;;;;;1999.90;999.90;;;9.10;99.90;;;;;;5042365;28;20029;-83
2023/05/11 01:37:53;;;;;;;1999.90;999.90;;;9.10;99.90;;;;;;5039895;28;20029;-81
2023/05/11 01:40:23;;;;;;;1999.90;999.90;;;9.00;99.90;;;;;;5047361;28;20028;-81
2023/05/11 01:42:57;;;;;;;1999.90;999.90;;;9.00;99.90;;;;;;5045506;28;20047;-79
2023/05/11 01:45:26;;;;;;;1999.90;999.90;;;9.10;99.90;;;;;;5062460;28;20721;-80
2023/05/11 01:47:54;;;;;;;1999.90;999.90;;;9.10;99.90;;;;;;5048723;28;20115;-79
2023/05/11 01:50:23;;;;;;;1999.90;999.90;;;9.10;99.90;;;;;;5044566;28;20048;-80
2023/05/11 01:52:50;;;;;;;1999.90;999.90;;;9.10;99.90;;;;;;5069239;28;20078;-79
2023/05/11 01:55:19;;;;;;;1999.90;999.90;;;9.10;99.90;;;;;;5062851;28;20028;-80
2023/05/11 01:57:45;;;;;;;1999.90;999.90;;;9.10;99.90;;;;;;5062896;28;20028;-79
2023/05/11 02:00:14;;;;;;;1999.90;999.90;;;9.10;99.90;;;;;;5066390;28;20025;-80
2023/05/11 02:02:41;;;;;;;1999.90;999.90;;;9.10;99.90;;;;;;5042138;28;20054;-81
2023/05/11 02:05:08;;;;;;;1999.90;999.90;;;9.00;99.90;;;;;;5047174;28;20039;-81
2023/05/11 02:07:35;;;;;;;1999.90;999.90;;;9.10;99.90;;;;;;5027313;28;20059;-81
2023/05/11 02:10:01;;;;;;;1999.90;999.90;;;9.10;99.90;;;;;;5063146;28;20047;-80
2023/05/11 02:12:28;;;;;;;1999.90;999.90;;;9.10;99.90;;;;;;5044299;28;20028;-80
2023/05/11 02:14:55;;;;;;;1999.90;999.90;;;9.00;99.90;;;;;;5063535;28;20058;-80
2023/05/11 02:17:23;;;;;;;1999.90;999.90;;;9.00;99.90;;;;;;5057320;28;20056;-79
2023/05/11 02:19:50;;;;;;;1999.90;999.90;;;9.00;99.90;;;;;;5047361;28;20061;-80
2023/05/11 02:22:17;;;;;;;1999.90;999.90;;;9.10;99.90;;;;;;5063369;28;20029;-79
2023/05/11 02:24:42;;;;;;;1999.90;999.90;;;9.00;99.90;;;;;;5029910;28;20143;-80
2023/05/11 02:27:08;;;;;;;1999.90;999.90;;;9.00;99.90;;;;;;5062916;28;20149;-79
2023/05/11 02:29:34;;;;;;;1999.90;999.90;;;9.00;99.90;;;;;;5065708;28;20029;-81
2023/05/11 02:32:05;;;;;;;1999.90;999.90;;;9.00;99.90;;;;;;5028558;28;20163;-80
2023/05/11 02:34:39;;;;;;;1999.90;999.90;;;9.00;99.90;;;;;;5063562;28;20028;-81
2023/05/11 02:37:11;;;;;;;1999.90;999.90;;;9.10;99.90;;;;;;5062787;28;20074;-82
2023/05/11 02:39:39;;;;;;;1999.90;999.90;;;9.00;99.90;;;;;;5065659;28;20048;-81
2023/05/11 02:42:23;;;;;;;1999.90;999.90;;;9.00;99.90;;;;;;5045900;28;20082;-80
2023/05/11 02:44:59;;;;;;;1999.90;999.90;;;9.00;99.90;;;;;;5062956;28;20040;-82
2023/05/11 02:47:32;;;;;;;1999.90;999.90;;;9.00;99.90;;;;;;5058691;28;20032;-81
2023/05/11 02:50:02;;;;;;;1999.90;999.90;;;9.00;99.90;;;;;;5043377;28;20073;-80
2023/05/11 02:52:30;;;;;;;1999.90;999.90;;;9.00;99.90;;;;;;5050601;28;20486;-81
2023/05/11 02:54:56;;;;;;;1999.90;999.90;;;9.10;99.90;;;;;;5064337;28;20058;-81
2023/05/11 02:57:23;;;;;;;1999.90;999.90;;;9.10;99.90;;;;;;5062227;28;20032;-81
2023/05/11 02:59:48;;;;;;;1999.90;999.90;;;9.10;99.90;;;;;;5065890;28;20036;-80
2023/05/11 03:02:14;;;;;;;1999.90;999.90;;;9.00;99.90;;;;;;5043636;28;20032;-80
2023/05/11 03:04:40;;;;;;;1999.90;999.90;;;9.00;99.90;;;;;;5064126;28;20047;-83
2023/05/11 03:07:06;;;;;;;1999.90;999.90;;;9.00;99.90;;;;;;5062124;28;20048;-81
2023/05/11 03:09:33;;;;;;;1999.90;999.90;;;8.90;99.90;;;;;;5032092;28;20406;-80
2023/05/11 03:12:01;;;;;;;1999.90;999.90;;;9.00;99.90;;;;;;5034190;28;20048;-82
2023/05/11 03:14:26;;;;;;;1999.90;999.90;;;8.90;99.90;;;;;;5030757;28;20049;-80
2023/05/11 03:16:55;;;;;;;1999.90;999.90;;;9.00;99.90;;;;;;5064482;28;20422;-80
2023/05/11 03:19:21;;;;;;;1999.90;999.90;;;9.00;99.90;;;;;;5050789;28;20036;-81
2023/05/11 03:21:50;;;;;;;1999.90;999.90;;;9.00;99.90;;;;;;5065461;28;20021;-82
2023/05/11 03:24:16;;;;;;;1999.90;999.90;;;9.00;99.90;;;;;;5041329;28;20029;-82
2023/05/11 03:26:45;;;;;;;1999.90;999.90;;;8.90;99.90;;;;;;5064205;28;20074;-83
2023/05/11 03:29:13;;;;;;;1999.90;999.90;;;9.00;99.90;;;;;;5044023;28;20082;-81
2023/05/11 03:31:39;;;;;;;1999.90;999.90;;;9.10;99.90;;;;;;5049164;28;20033;-82
2023/05/11 03:34:04;;;;;;;1999.90;999.90;;;9.10;99.90;;;;;;5062221;28;20103;-79
2023/05/11 03:36:32;;;;;;;1999.90;999.90;;;9.10;99.90;;;;;;5061467;28;20063;-82
2023/05/11 03:38:59;;;;;;;1999.90;999.90;;;9.10;99.90;;;;;;5064384;28;20029;-82
2023/05/11 03:41:27;;;;;;;1999.90;999.90;;;9.10;99.90;;;;;;5063470;28;20031;-80
2023/05/11 03:43:56;;;;;;;1999.90;999.90;;;9.10;99.90;;;;;;5064046;28;20051;-83
2023/05/11 03:46:23;;;;;;;1999.90;999.90;;;9.10;99.90;;;;;;5045633;28;20087;-81
2023/05/11 03:48:51;;;;;;;1999.90;999.90;;;9.10;99.90;;;;;;5069190;28;20553;-80
2023/05/11 03:51:17;;;;;;;1999.90;999.90;;;9.10;99.90;;;;;;5063093;28;20458;-81
2023/05/11 03:53:43;;;;;;;1999.90;999.90;;;9.20;99.90;;;;;;5048614;28;20117;-81
2023/05/11 03:56:08;;;;;;;1999.90;999.90;;;9.20;99.90;;;;;;5049812;28;20139;-80
2023/05/11 03:58:41;;;;;;;1999.90;999.90;;;9.20;99.90;;;;;;5041742;28;20037;-82
2023/05/11 04:01:10;;;;;;;1999.90;999.90;;;9.20;99.90;;;;;;5060701;28;20029;-81
2023/05/11 04:03:50;;;;;;;1999.90;999.90;;;9.20;99.90;;;;;;5060798;28;20391;-81
2023/05/11 04:06:16;;;;;;;1999.90;999.90;;;9.20;99.90;;;;;;5044428;28;20037;-80
2023/05/11 04:08:45;;;;;;;1999.90;999.90;;;9.20;99.90;;;;;;5062960;28;20063;-81
2023/05/11 04:11:12;;;;;;;1999.90;999.90;;;9.20;99.90;;;;;;5063077;28;20039;-80
2023/05/11 04:13:38;;;;;;;1999.90;999.90;;;9.20;99.90;;;;;;5043548;28;20036;-80
2023/05/11 04:16:04;;;;;;;1999.90;999.90;;;9.30;99.90;;;;;;5048901;28;20041;-80
2023/05/11 04:18:30;;;;;;;1999.90;999.90;;;9.20;99.90;;;;;;5049171;28;20033;-80
2023/05/11 04:20:56;;;;;;;1999.90;999.90;;;9.20;99.90;;;;;;5064480;28;20087;-80
2023/05/11 04:23:21;;;;;;;1999.90;999.90;;;9.20;99.90;;;;;;5056736;28;20102;-81
2023/05/11 04:25:55;;;;;;;1999.90;999.90;;;9.30;99.90;;;;;;5055199;28;20036;-80
2023/05/11 04:28:26;;;;;;;1999.90;999.90;;;9.20;99.90;;;;;;5061585;28;20033;-80
2023/05/11 04:30:56;;;;;;;1999.90;999.90;;;9.30;99.90;;;;;;5048510;28;20052;-81
2023/05/11 04:33:22;;;;;;;1999.90;999.90;;;9.40;99.90;;;;;;5046603;28;20036;-80
2023/05/11 04:35:52;;;;;;;1999.90;999.90;;;9.40;99.90;;;;;;5067748;28;20039;-80
2023/05/11 04:38:19;;;;;;;1999.90;999.90;;;9.30;99.90;;;;;;5063246;28;20118;-82
2023/05/11 04:40:46;;;;;;;1999.90;999.90;;;9.20;99.90;;;;;;5065319;28;20517;-80
2023/05/11 04:43:15;;;;;;;1999.90;999.90;;;9.30;99.90;;;;;;5063054;28;20097;-82
2023/05/11 04:45:46;;;;;;;1999.90;999.90;;;9.20;99.90;;;;;;5046956;28;20060;-80
2023/05/11 04:48:11;;;;;;;1999.90;999.90;;;9.20;99.90;;;;;;5064814;28;20036;-83
2023/05/11 04:50:37;;;;;;;1999.90;999.90;;;9.20;99.90;;;;;;5052290;28;21426;-84
2023/05/11 04:53:04;;;;;;;1999.90;999.90;;;9.10;99.90;;;;;;5045010;28;20071;-81
2023/05/11 04:55:30;;;;;;;1999.90;999.90;;;9.20;99.90;;;;;;5044979;28;20431;-79
2023/05/11 04:57:57;;;;;;;1999.90;999.90;;;9.20;99.90;;;;;;5065284;28;20102;-80
2023/05/11 05:00:23;;;;;;;1999.90;999.90;;;9.20;99.90;;;;;;5032434;28;20035;-82
2023/05/11 05:02:51;;;;;;;1999.90;999.90;;;9.30;99.90;;;;;;5044493;28;20402;-81
2023/05/11 05:05:17;;;;;;;1999.90;999.90;;;9.20;99.90;;;;;;5060660;28;20032;-82
2023/05/11 05:07:44;;;;;;;1999.90;999.90;;;9.20;99.90;;;;;;5028019;28;20033;-86
2023/05/11 05:10:11;;;;;;;1999.90;999.90;;;9.20;99.90;;;;;;5065482;28;20040;-83
2023/05/11 05:12:37;;;;;;;1999.90;999.90;;;9.30;99.90;;;;;;5062837;28;20021;-84
2023/05/11 05:15:04;;;;;;;1999.90;999.90;;;9.20;99.90;;;;;;5063867;28;20036;-85
2023/05/11 05:17:30;;;;;;;1999.90;999.90;;;9.30;99.90;;;;;;5060512;28;20067;-86
2023/05/11 05:19:59;;;;;;;1999.90;999.90;;;9.30;99.90;;;;;;5063275;28;20067;-83
2023/05/11 05:22:25;;;;;;;1999.90;999.90;;;9.40;99.90;;;;;;5046196;28;20316;-81
2023/05/11 05:24:51;;;;;;;1999.90;999.90;;;9.40;99.90;;;;;;5072688;28;20028;-82
2023/05/11 05:27:17;;;;;;;1999.90;999.90;;;9.50;99.90;;;;;;5063344;28;20094;-84
2023/05/11 05:29:42;;;;;;;1999.90;999.90;;;9.50;99.90;;;;;;5062292;28;20072;-83
2023/05/11 05:32:08;;;;;;;1999.90;999.90;;;9.50;99.90;;;;;;5045855;28;20025;-82
2023/05/11 05:34:34;;;;;;;1999.90;999.90;;;9.50;99.90;;;;;;5047847;28;20089;-83
2023/05/11 05:37:00;;;;;;;1999.90;999.90;;;9.70;99.90;;;;;;5048182;28;20044;-81
2023/05/11 05:39:26;;;;;;;1999.90;999.90;;;10.00;99.90;;;;;;5022685;28;20040;-80
2023/05/11 05:41:51;;;;;;;1999.90;999.90;;;10.00;99.90;;;;;;5055015;28;20036;-80
2023/05/11 05:44:17;;;;;;;1999.90;999.90;;;10.20;99.90;;;;;;5052818;28;20545;-79
2023/05/11 05:46:43;;;;;;;1999.90;999.90;;;10.10;99.90;;;;;;5059263;28;20055;-80
2023/05/11 05:49:08;;;;;;;1999.90;999.90;;;10.10;99.90;;;;;;5045228;28;20476;-80
2023/05/11 05:51:34;;;;;;;1999.90;999.90;;;10.00;99.90;;;;;;5065348;28;20032;-81
2023/05/11 05:54:00;;;;;;;1999.90;999.90;;;10.00;99.90;;;;;;5074228;28;20035;-80
2023/05/11 05:56:26;;;;;;;1999.90;999.90;;;10.00;99.90;;;;;;5063318;28;20479;-80
2023/05/11 05:58:51;;;;;;;1999.90;999.90;;;10.10;99.90;;;;;;5058802;28;20039;-79
2023/05/11 06:01:17;;;;;;;1999.90;999.90;;;10.10;99.90;;;;;;5058135;28;20372;-80
2023/05/11 06:03:44;;;;;;;1999.90;999.90;;;10.30;99.90;;;;;;5068492;28;20528;-80
2023/05/11 06:06:10;;;;;;;1999.90;999.90;;;10.10;99.90;;;;;;5053974;28;20760;-81
2023/05/11 06:08:36;;;;;;;1999.90;999.90;;;10.10;99.90;;;;;;5069681;28;20024;-78
2023/05/11 06:11:02;;;;;;;1999.90;999.90;;;9.90;99.90;;;;;;5056399;28;20116;-78
2023/05/11 06:13:29;;;;;;;1999.90;999.90;;;9.90;99.90;;;;;;5052038;28;20052;-79
2023/05/11 06:15:55;;;;;;;1999.90;999.90;;;10.00;99.90;;;;;;5051888;28;20029;-76
2023/05/11 06:18:20;;;;;;;1999.90;999.90;;;10.00;99.90;;;;;;5053148;28;20044;-81
2023/05/11 06:20:46;;;;;;;1999.90;999.90;;;9.90;99.90;;;;;;5067935;28;20033;-78
2023/05/11 06:23:11;;;;;;;1999.90;999.90;;;10.00;99.90;;;;;;5066843;28;20048;-80
2023/05/11 06:25:37;;;;;;;1999.90;999.90;;;10.00;99.90;;;;;;5045681;28;20027;-81
2023/05/11 06:28:03;;;;;;;1999.90;999.90;;;10.00;99.90;;;;;;5047082;28;20050;-79
2023/05/11 06:30:30;;;;;;;1999.90;999.90;;;9.90;99.90;;;;;;5061326;28;20043;-81
2023/05/11 06:32:56;;;;;;;1999.90;999.90;;;10.00;99.90;;;;;;5051460;28;20504;-81
2023/05/11 06:35:21;;;;;;;1999.90;999.90;;;10.00;99.90;;;;;;5068188;28;20051;-81
2023/05/11 06:37:48;;;;;;;1999.90;999.90;;;9.90;99.90;;;;;;5055109;28;20103;-81
2023/05/11 06:40:15;;;;;;;1999.90;999.90;;;10.00;99.90;;;;;;5038405;28;20028;-81
2023/05/11 06:42:41;;;;;;;1999.90;999.90;;;10.00;99.90;;;;;;5067611;28;20574;-81
2023/05/11 06:45:07;;;;;;;1999.90;999.90;;;10.00;99.90;;;;;;5052312;28;20061;-81
2023/05/11 06:47:33;;;;;;;1999.90;999.90;;;9.90;99.90;;;;;;5034841;28;20520;-81
2023/05/11 06:49:59;;;;;;;1999.90;999.90;;;9.70;99.90;;;;;;5069474;28;20044;-82
2023/05/11 06:52:25;;;;;;;1999.90;999.90;;;9.70;99.90;;;;;;5052808;28;20098;-82
2023/05/11 06:54:50;;;;;;;1999.90;999.90;;;9.70;99.90;;;;;;5068633;28;20451;-80
2023/05/11 06:57:16;;;;;;;1999.90;999.90;;;9.60;99.90;;;;;;5066186;28;20048;-80
2023/05/11 06:59:43;;;;;;;1999.90;999.90;;;9.50;99.90;;;;;;5053478;28;20032;-81
2023/05/11 07:02:09;;;;;;;1999.90;999.90;;;9.50;99.90;;;;;;5067645;28;20557;-81
2023/05/11 07:04:36;;;;;;;1999.90;999.90;;;9.50;99.90;;;;;;5063924;28;20035;-80
2023/05/11 07:07:02;;;;;;;1999.90;999.90;;;9.60;99.90;;;;;;5067830;28;20033;-81
2023/05/11 07:09:28;;;;;;;1999.90;999.90;;;9.60;99.90;;;;;;5069364;28;20115;-82
2023/05/11 07:11:54;;;;;;;1999.90;999.90;;;9.60;99.90;;;;;;5067140;28;20119;-81
2023/05/11 07:14:20;;;;;;;1999.90;999.90;;;9.60;99.90;;;;;;5050895;28;20115;-80
2023/05/11 07:16:46;;;;;;;1999.90;999.90;;;9.50;99.90;;;;;;5068720;28;20107;-80
2023/05/11 07:19:12;;;;;;;1999.90;999.90;;;9.50;99.90;;;;;;5053031;28;20043;-80
2023/05/11 07:21:38;;;;;;;1999.90;999.90;;;9.50;99.90;;;;;;5068781;28;20078;-81
2023/05/11 07:24:04;;;;;;;1999.90;999.90;;;9.40;99.90;;;;;;5064684;28;20048;-81
2023/05/11 07:26:29;;;;;;;1999.90;999.90;;;9.60;99.90;;;;;;5052940;28;20675;-81
2023/05/11 07:28:55;;;;;;;1999.90;999.90;;;9.70;99.90;;;;;;5040644;28;20093;-82
2023/05/11 07:31:21;;;;;;;1999.90;999.90;;;9.80;99.90;;;;;;5066134;28;20025;-81
2023/05/11 07:33:47;;;;;;;1999.90;999.90;;;9.80;99.90;;;;;;5064587;28;20414;-83
2023/05/11 07:36:13;;;;;;;1999.90;999.90;;;9.90;99.90;;;;;;5049509;28;20041;-81
2023/05/11 07:38:39;;;;;;;1999.90;999.90;;;9.80;99.90;;;;;;5067644;28;20032;-81
2023/05/11 07:41:04;;;;;;;1999.90;999.90;;;9.90;99.90;;;;;;5050679;28;20044;-80
2023/05/11 07:43:30;;;;;;;1999.90;999.90;;;9.90;99.90;;;;;;5067150;28;20079;-82
2023/05/11 07:45:56;;;;;;;1999.90;999.90;;;10.00;99.90;;;;;;5067223;28;20059;-80
2023/05/11 07:48:22;;;;;;;1999.90;999.90;;;10.10;99.90;;;;;;5067438;28;20052;-81
2023/05/11 07:50:50;;;;;;;1999.90;999.90;;;10.10;99.90;;;;;;5071124;28;20077;-80
2023/05/11 07:53:16;;;;;;;1999.90;999.90;;;10.20;99.90;;;;;;5058272;28;20502;-80
2023/05/11 07:55:42;;;;;;;1999.90;999.90;;;10.20;99.90;;;;;;5072678;28;20039;-81
2023/05/11 07:58:07;;;;;;;1999.90;999.90;;;10.40;99.90;;;;;;5056215;28;20029;-80
2023/05/11 08:00:33;;;;;;;1999.90;999.90;;;10.20;99.90;;;;;;5036798;28;20497;-80
2023/05/11 08:03:00;;;;;;;1999.90;999.90;;;10.10;99.90;;;;;;5073966;28;20056;-81
2023/05/11 08:05:26;;;;;;;1999.90;999.90;;;10.10;99.90;;;;;;5074659;28;20016;-80
2023/05/11 08:07:51;;;;;;;1999.90;999.90;;;9.90;99.90;;;;;;5074464;28;20093;-79
2023/05/11 08:10:17;;;;;;;1999.90;999.90;;;10.10;99.90;;;;;;5072622;28;20051;-80
2023/05/11 08:12:43;;;;;;;1999.90;999.90;;;10.00;99.90;;;;;;5035772;28;20024;-80
2023/05/11 08:15:09;;;;;;;1999.90;999.90;;;10.30;99.90;;;;;;5041697;28;20475;-81
2023/05/11 08:17:35;;;;;;;1999.90;999.90;;;10.20;99.90;;;;;;5072607;28;20025;-79
2023/05/11 08:20:01;;;;;;;1999.90;999.90;;;10.20;99.90;;;;;;5055282;28;20044;-80
2023/05/11 08:22:27;;;;;;;1999.90;999.90;;;10.40;99.90;;;;;;5055187;28;20033;-80
2023/05/11 08:24:53;;;;;;;1999.90;999.90;;;10.40;99.90;;;;;;5072157;28;20040;-80
2023/05/11 08:27:18;;;;;;;1999.90;999.90;;;10.60;99.90;;;;;;5058350;28;20079;-80
2023/05/11 08:29:44;;;;;;;1999.90;999.90;;;10.50;99.90;;;;;;5071524;28;20512;-80
2023/05/11 08:32:10;;;;;;;1999.90;999.90;;;10.60;99.90;;;;;;5070765;28;20024;-79
2023/05/11 08:34:35;;;;;;;1999.90;999.90;;;10.70;99.90;;;;;;5054182;28;20103;-80
2023/05/11 08:37:01;;;;;;;1999.90;999.90;;;10.90;99.90;;;;;;5071366;28;20048;-80
2023/05/11 08:39:27;;;;;;;1999.90;999.90;;;10.90;99.90;;;;;;5054797;28;20147;-80
2023/05/11 08:41:56;;;;;;;1999.90;999.90;;;11.20;99.90;;;;;;5071452;28;20135;-79
2023/05/11 08:44:24;;;;;;;1999.90;999.90;;;11.20;99.90;;;;;;5053712;28;20047;-81
2023/05/11 08:46:52;;;;;;;1999.90;999.90;;;11.30;99.90;;;;;;5054352;28;20036;-80
2023/05/11 08:49:18;;;;;;;1999.90;999.90;;;11.30;99.90;;;;;;5041169;28;20119;-80
2023/05/11 08:51:45;;;;;;;1999.90;999.90;;;11.30;99.90;;;;;;5056569;28;20370;-79
2023/05/11 08:54:11;;;;;;;1999.90;999.90;;;11.50;99.80;;;;;;5051611;28;20035;-79
2023/05/11 08:56:40;;;;;;;1999.90;999.90;;;11.60;99.90;;;;;;5071764;28;20028;-79
2023/05/11 08:59:07;;;;;;;1999.90;999.90;;;11.50;98.90;;;;;;5070924;28;20033;-81
2023/05/11 09:01:35;;;;;;;1999.90;999.90;;;11.70;98.40;;;;;;5051109;28;20085;-79
2023/05/11 09:04:02;;;;;;;1999.90;999.90;;;11.60;99.90;;;;;;5070899;28;20024;-78
2023/05/11 09:06:29;;;;;;;1999.90;999.90;;;11.60;99.90;;;;;;5071104;28;20043;-78
2023/05/11 09:08:56;;;;;;;1999.90;999.90;;;11.70;99.30;;;;;;5053472;28;20047;-78
2023/05/11 09:11:23;;;;;;;1999.90;999.90;;;11.70;98.00;;;;;;5067660;28;20502;-78
2023/05/11 09:13:49;;;;;;;1999.90;999.90;;;11.90;99.30;;;;;;5070397;28;20024;-78
2023/05/11 09:16:15;;;;;;;1999.90;999.90;;;11.90;96.90;;;;;;5037332;28;20483;-78
2023/05/11 09:18:48;;;;;;;1999.90;999.90;;;12.00;98.40;;;;;;5053003;28;20035;-78
2023/05/11 09:21:15;;;;;;;1999.90;999.90;;;12.00;98.70;;;;;;5053958;28;20032;-79
2023/05/11 09:23:40;;;;;;;1999.90;999.90;;;12.20;99.80;;;;;;5056815;28;20031;-78
2023/05/11 09:26:13;;;;;;;1999.90;999.90;;;12.00;96.60;;;;;;5070085;28;20028;-78
2023/05/11 09:28:48;;;;;;;1999.90;999.90;;;12.20;99.20;;;;;;5053279;28;20038;-78
2023/05/11 09:31:43;;;;;;;1999.90;999.90;;;12.00;97.20;;;;;;5053649;28;20032;-78
2023/05/11 09:34:18;;;;;;;1999.90;999.90;;;11.80;99.00;;;;;;5052663;28;20024;-78
2023/05/11 09:36:47;;;;;;;1999.90;999.90;;;11.60;93.60;;;;;;5068281;28;20052;-78
2023/05/11 09:39:13;;;;;;;1999.90;999.90;;;11.80;98.30;;;;;;5069206;28;20109;-78
2023/05/11 09:41:40;;;;;;;1999.90;999.90;;;11.50;95.00;;;;;;5068115;28;20498;-77
2023/05/11 09:44:13;;;;;;;1999.90;999.90;;;11.30;99.00;;;;;;5069997;28;20770;-77
2023/05/11 09:46:42;;;;;;;1999.90;999.90;;;11.50;98.80;;;;;;5055195;28;20028;-77
2023/05/11 09:49:08;;;;;;;1999.90;999.90;;;11.40;97.70;;;;;;5067161;28;20517;-77
2023/05/11 09:51:41;;;;;;;1999.90;999.90;;;11.40;96.80;;;;;;5065478;28;20033;-77
2023/05/11 09:54:18;;;;;;;1999.90;999.90;;;11.20;96.00;;;;;;5054142;28;20031;-77
2023/05/11 09:56:46;;;;;;;1999.90;999.90;;;11.00;95.60;;;;;;5056498;28;20143;-77
2023/05/11 09:59:14;;;;;;;1999.90;999.90;;;10.80;95.50;;;;;;5066688;28;20033;-77
2023/05/11 10:01:40;;;;;;;1999.90;999.90;;;10.80;96.50;;;;;;5052279;28;20070;-77
2023/05/11 10:04:07;;;;;;;1999.90;999.90;;;10.70;98.00;;;;;;5035573;28;20040;-77
2023/05/11 10:07:05;;;;;;;1999.90;999.90;;;10.80;99.90;;;;;;5055324;28;20038;-78
2023/05/11 10:09:31;;;;;;;1999.90;999.90;;;10.70;98.80;;;;;;5054711;28;20399;-79
2023/05/11 10:11:58;;;;;;;1999.90;999.90;;;10.50;96.40;;;;;;5054466;28;20033;-79
2023/05/11 10:14:28;;;;;;;1999.90;999.90;;;10.70;99.70;;;;;;5052425;28;20028;-78
2023/05/11 10:16:57;;;;;;;1999.90;999.90;;;10.70;99.90;;;;;;5053659;28;20032;-79
2023/05/11 10:19:23;;;;;;;1999.90;999.90;;;10.90;99.90;;;;;;5065687;28;20497;-79
2023/05/11 10:21:54;;;;;;;1999.90;999.90;;;10.90;99.90;;;;;;5036310;28;20047;-78
2023/05/11 10:24:20;;;;;;;1999.90;999.90;;;11.40;99.90;;;;;;5055345;28;20072;-78
2023/05/11 10:26:46;;;;;;;1999.90;999.90;;;11.40;99.90;;;;;;5048702;28;20033;-78
2023/05/11 10:29:12;;;;;;;1999.90;999.90;;;11.60;99.50;;;;;;5066057;28;20032;-78
2023/05/11 10:31:39;;;;;;;1999.90;999.90;;;11.80;99.90;;;;;;5052092;28;20043;-78
2023/05/11 10:34:05;;;;;;;1999.90;999.90;;;11.70;99.60;;;;;;5033948;28;20029;-79
2023/05/11 10:36:32;;;;;;;1999.90;999.90;;;11.40;98.60;;;;;;5068689;28;20025;-80
2023/05/11 10:38:58;;;;;;;1999.90;999.90;;;11.30;99.60;;;;;;5021673;28;20029;-79
2023/05/11 10:42:00;;;;;;;1999.90;999.90;;;11.00;99.90;;;;;;5053637;28;20039;-81
2023/05/11 10:45:11;;;;;;;1999.90;999.90;;;11.10;99.90;;;;;;5068510;28;20498;-81
2023/05/11 10:47:55;;;;;;;;;;;11.20;99.90;;;;;;5034233;28;20047;-80
2023/05/11 10:50:39;;;;;;;1999.90;999.90;;;11.10;99.90;;;;;;5068239;28;19920;-79
2023/05/11 10:53:37;;;;;;;1999.90;999.90;;;11.20;99.90;;;;;;5066412;28;20025;-80
2023/05/11 10:56:09;;;;;;;1999.90;999.90;;;11.60;99.90;;;;;;5062132;28;20075;-79
2023/05/11 10:58:37;;;;;;;1999.90;999.90;;;11.30;97.70;;;;;;5065030;28;20032;-80
2023/05/11 11:01:41;;;;;;;1999.90;999.90;;;11.60;99.90;;;;;;5052739;28;20028;-79
2023/05/11 11:04:10;;;;;;;1999.90;999.90;;;11.70;99.90;;;;;;5053856;28;20051;-79
2023/05/11 11:06:38;;;;;;;1999.90;999.90;;;12.10;99.30;;;;;;5067124;28;20398;-79
2023/05/11 11:09:13;;;;;;;1999.90;999.90;;;12.20;99.90;;;;;;5068303;28;20112;-79
2023/05/11 11:11:45;;;;;;;1999.90;999.90;;;12.30;98.90;;;;;;5063122;28;20021;-79
2023/05/11 11:14:12;;;;;;;1999.90;999.90;;;12.20;99.00;;;;;;5062508;28;20028;-79
2023/05/11 11:16:39;;;;;;;1999.90;999.90;;;12.00;99.10;;;;;;5061759;28;20403;-78
2023/05/11 11:19:31;;;;;;;1999.90;999.90;;;11.90;99.10;;;;;;5060877;28;20035;-82
2023/05/11 11:21:58;;;;;;;1999.90;999.90;;;12.00;98.00;;;;;;5063307;28;20575;-78
2023/05/11 11:24:51;;;;;;;1999.90;999.90;;;12.00;97.50;;;;;;5067742;28;20063;-83
2023/05/11 11:27:17;;;;;;;1999.90;999.90;;;12.30;97.70;;;;;;5066289;28;20040;-83
2023/05/11 11:30:21;;;;;;;1999.90;999.90;;;12.60;97.70;;;;;;5068492;28;20380;-83
2023/05/11 11:32:52;;;;;;;1999.90;999.90;;;12.50;99.60;;;;;;5052080;28;20887;-83
2023/05/11 11:35:46;;;;;;;1999.90;999.90;;;12.60;99.10;;;;;;5051144;28;20090;-83
2023/05/11 11:38:18;;;;;;;1999.90;999.90;;;12.10;97.70;;;;;;5052406;28;20028;-82
2023/05/11 11:40:52;;;;;;;1999.90;999.90;;;12.00;98.70;;;;;;5069774;28;20025;-77
2023/05/11 11:43:23;;;;;;;1999.90;999.90;;;12.30;97.80;;;;;;5072876;28;20052;-76
2023/05/11 11:45:49;;;;;;;1999.90;999.90;;;12.20;98.60;;;;;;5061589;28;20018;-77
2023/05/11 11:48:27;;;;;;;1999.90;999.90;;;12.20;97.20;;;;;;5068428;28;20089;-76
2023/05/11 11:51:13;;;;;;;1999.90;999.90;;;12.30;98.50;;;;;;5065207;28;20033;-77
2023/05/11 11:53:43;;;;;;;1999.90;999.90;;;12.40;98.60;;;;;;5049765;28;20510;-79
2023/05/11 11:56:15;;;;;;;1999.90;999.90;;;12.70;98.70;;;;;;5069114;28;20012;-80
2023/05/11 11:58:41;;;;;;;1999.90;999.90;;;12.80;99.30;;;;;;5069805;28;20177;-77
2023/05/11 12:01:18;;;;;;;1999.90;999.90;;;13.00;98.20;;;;;;5067207;28;20051;-76
2023/05/11 12:03:52;;;;;;;1999.90;999.90;;;12.80;97.70;;;;;;5050720;28;20413;-78
2023/05/11 12:06:23;;;;;;;1999.90;999.90;;;13.20;99.10;;;;;;5069659;28;20036;-78
2023/05/11 12:08:49;;;;;;;1999.90;999.90;;;13.20;99.10;;;;;;5044336;28;20029;-77
2023/05/11 12:11:17;;;;;;;1999.90;999.90;;;13.30;98.90;;;;;;5066111;28;20060;-77
2023/05/11 12:13:43;;;;;;;1999.90;999.90;;;13.50;97.20;;;;;;5063620;28;20554;-77